sensor_id;sensor_type;location;lat;lon;timestamp;pressure;altitude;pressure_sealevel;temperature;humidity
49104;BME280;34915;52.926;11.116;2023-05-03T00:00:51;102727.78;;;5.59;81.00
49104;BME280;34915;52.926;11.116;2023-05-03T00:03:17;102734.75;;;5.63;81.76
49104;BME280;34915;52.926;11.116;2023-05-03T00:05:47;102738.22;;;5.63;81.98
49104;BME280;34915;52.926;11.116;2023-05-03T00:08:12;102728.78;;;5.55;82.34
49104;BME280;34915;52.926;11.116;2023-05-03T00:10:38;102742.03;;;5.47;81.95
49104;BME280;34915;52.926;11.116;2023-05-03T00:13:03;102736.84;;;5.43;83.27
49104;BME280;34915;52.926;11.116;2023-05-03T00:15:29;102730.69;;;5.45;82.85
49104;BME280;34915;52.926;11.116;2023-05-03T00:17:55;102736.81;;;5.46;83.98
49104;BME280;34915;52.926;11.116;2023-05-03T00:20:20;102738.59;;;5.44;83.58
49104;BME280;34915;52.926;11.116;2023-05-03T00:22:46;102746.56;;;5.39;83.94
49104;BME280;34915;52.926;11.116;2023-05-03T00:25:12;102742.22;;;5.37;84.56
49104;BME280;34915;52.926;11.116;2023-05-03T00:27:37;102739.75;;;5.30;84.17
49104;BME280;34915;52.926;11.116;2023-05-03T00:30:04;102745.97;;;5.24;84.38
49104;BME280;34915;52.926;11.116;2023-05-03T00:32:29;102746.97;;;5.19;84.50
49104;BME280;34915;52.926;11.116;2023-05-03T00:34:56;102739.03;;;5.20;85.31
49104;BME280;34915;52.926;11.116;2023-05-03T00:37:24;102740.66;;;5.27;85.20
49104;BME280;34915;52.926;11.116;2023-05-03T00:39:50;102746.75;;;5.31;86.28
49104;BME280;34915;52.926;11.116;2023-05-03T00:42:16;102742.44;;;5.25;85.16
49104;BME280;34915;52.926;11.116;2023-05-03T00:44:41;102745.97;;;5.24;85.54
49104;BME280;34915;52.926;11.116;2023-05-03T00:47:10;102742.50;;;5.22;86.47
49104;BME280;34915;52.926;11.116;2023-05-03T00:49:36;102746.00;;;5.21;86.85
49104;BME280;34915;52.926;11.116;2023-05-03T00:52:01;102746.19;;;5.12;86.64
49104;BME280;34915;52.926;11.116;2023-05-03T00:54:27;102735.81;;;5.03;86.01
49104;BME280;34915;52.926;11.116;2023-05-03T00:56:55;102738.50;;;5.00;85.55
49104;BME280;34915;52.926;11.116;2023-05-03T00:59:21;102744.69;;;4.96;86.45
49104;BME280;34915;52.926;11.116;2023-05-03T01:01:49;102737.72;;;4.95;86.35
49104;BME280;34915;52.926;11.116;2023-05-03T01:04:15;102734.28;;;4.90;85.82
49104;BME280;34915;52.926;11.116;2023-05-03T01:17:12;102750.34;;;4.73;88.17
49104;BME280;34915;52.926;11.116;2023-05-03T01:19:47;102748.63;;;4.69;87.53
49104;BME280;34915;52.926;11.116;2023-05-03T01:25:27;102746.94;;;4.68;88.21
49104;BME280;34915;52.926;11.116;2023-05-03T01:27:55;102752.22;;;4.65;88.66
49104;BME280;34915;52.926;11.116;2023-05-03T01:30:24;102752.28;;;4.59;88.37
49104;BME280;34915;52.926;11.116;2023-05-03T01:33:07;102756.69;;;4.58;88.18
49104;BME280;34915;52.926;11.116;2023-05-03T01:35:56;102750.72;;;4.49;88.54
49104;BME280;34915;52.926;11.116;2023-05-03T01:38:26;102748.97;;;4.48;89.59
49104;BME280;34915;52.926;11.116;2023-05-03T01:40:54;102757.63;;;4.53;89.93
49104;BME280;34915;52.926;11.116;2023-05-03T01:43:26;102742.00;;;4.44;90.80
49104;BME280;34915;52.926;11.116;2023-05-03T01:45:56;102760.34;;;4.47;90.27
49104;BME280;34915;52.926;11.116;2023-05-03T01:48:21;102752.41;;;4.50;90.48
49104;BME280;34915;52.926;11.116;2023-05-03T01:50:47;102760.34;;;4.45;89.76
49104;BME280;34915;52.926;11.116;2023-05-03T01:53:12;102764.75;;;4.45;90.43
49104;BME280;34915;52.926;11.116;2023-05-03T01:55:38;102759.59;;;4.39;90.04
49104;BME280;34915;52.926;11.116;2023-05-03T01:58:04;102762.38;;;4.27;89.49
49104;BME280;34915;52.926;11.116;2023-05-03T02:00:30;102767.59;;;4.29;90.75
49104;BME280;34915;52.926;11.116;2023-05-03T02:02:56;102764.13;;;4.25;91.51
49104;BME280;34915;52.926;11.116;2023-05-03T02:05:22;102760.75;;;4.17;91.39
49104;BME280;34915;52.926;11.116;2023-05-03T02:07:48;102758.13;;;4.17;91.57
49104;BME280;34915;52.926;11.116;2023-05-03T02:10:13;102765.16;;;4.12;91.57
49104;BME280;34915;52.926;11.116;2023-05-03T02:12:40;102756.50;;;4.07;92.25
49104;BME280;34915;52.926;11.116;2023-05-03T02:15:06;102763.47;;;4.11;92.68
49104;BME280;34915;52.926;11.116;2023-05-03T02:17:32;102765.16;;;4.12;92.42
49104;BME280;34915;52.926;11.116;2023-05-03T02:19:58;102763.50;;;4.08;92.55
49104;BME280;34915;52.926;11.116;2023-05-03T02:22:24;102780.09;;;4.09;92.80
49104;BME280;34915;52.926;11.116;2023-05-03T02:24:49;102774.91;;;4.03;92.41
49104;BME280;34915;52.926;11.116;2023-05-03T02:27:15;102781.03;;;4.03;93.19
49104;BME280;34915;52.926;11.116;2023-05-03T02:29:40;102788.06;;;4.01;93.75
49104;BME280;34915;52.926;11.116;2023-05-03T02:32:06;102786.34;;;3.97;94.06
49104;BME280;34915;52.926;11.116;2023-05-03T02:34:32;102776.72;;;3.96;94.29
49104;BME280;34915;52.926;11.116;2023-05-03T02:36:57;102779.34;;;3.96;94.37
49104;BME280;34915;52.926;11.116;2023-05-03T02:39:23;102779.38;;;3.93;94.39
49104;BME280;34915;52.926;11.116;2023-05-03T02:41:48;102782.88;;;3.95;94.23
49104;BME280;34915;52.926;11.116;2023-05-03T02:44:14;102788.13;;;3.94;94.38
49104;BME280;34915;52.926;11.116;2023-05-03T02:46:40;102781.16;;;3.91;94.55
49104;BME280;34915;52.926;11.116;2023-05-03T02:49:09;102783.00;;;3.85;94.59
49104;BME280;34915;52.926;11.116;2023-05-03T02:51:35;102784.78;;;3.82;94.59
49104;BME280;34915;52.926;11.116;2023-05-03T02:54:01;102774.50;;;3.64;94.69
49104;BME280;34915;52.926;11.116;2023-05-03T02:56:27;102786.66;;;3.71;95.50
49104;BME280;34915;52.926;11.116;2023-05-03T02:58:53;102786.69;;;3.68;95.66
49104;BME280;34915;52.926;11.116;2023-05-03T03:01:20;102777.88;;;3.72;96.02
49104;BME280;34915;52.926;11.116;2023-05-03T03:03:46;102774.34;;;3.76;96.03
49104;BME280;34915;52.926;11.116;2023-05-03T03:06:12;102770.09;;;3.66;96.62
49104;BME280;34915;52.926;11.116;2023-05-03T03:08:37;102787.50;;;3.73;96.28
49104;BME280;34915;52.926;11.116;2023-05-03T03:11:04;102785.75;;;3.72;96.49
49104;BME280;34915;52.926;11.116;2023-05-03T03:13:30;102791.91;;;3.71;96.67
49104;BME280;34915;52.926;11.116;2023-05-03T03:15:55;102774.50;;;3.64;97.25
49104;BME280;34915;52.926;11.116;2023-05-03T03:18:21;102795.47;;;3.64;97.21
49104;BME280;34915;52.926;11.116;2023-05-03T03:20:46;102792.03;;;3.59;96.91
49104;BME280;34915;52.926;11.116;2023-05-03T03:23:12;102790.34;;;3.52;97.01
49104;BME280;34915;52.926;11.116;2023-05-03T03:25:37;102790.31;;;3.55;97.71
49104;BME280;34915;52.926;11.116;2023-05-03T03:28:03;102793.81;;;3.54;97.97
49104;BME280;34915;52.926;11.116;2023-05-03T03:30:29;102787.69;;;3.55;99.00
49104;BME280;34915;52.926;11.116;2023-05-03T03:32:55;102786.81;;;3.56;99.39
49104;BME280;34915;52.926;11.116;2023-05-03T03:35:20;102792.03;;;3.59;98.93
49104;BME280;34915;52.926;11.116;2023-05-03T03:37:46;102798.16;;;3.56;98.46
49104;BME280;34915;52.926;11.116;2023-05-03T03:40:11;102800.81;;;3.52;98.17
49104;BME280;34915;52.926;11.116;2023-05-03T03:42:38;102792.13;;;3.47;98.47
49104;BME280;34915;52.926;11.116;2023-05-03T03:45:04;102797.34;;;3.47;98.91
49104;BME280;34915;52.926;11.116;2023-05-03T03:47:30;102800.88;;;3.46;98.91
49104;BME280;34915;52.926;11.116;2023-05-03T03:49:55;102799.97;;;3.47;99.12
49104;BME280;34915;52.926;11.116;2023-05-03T03:52:21;102800.88;;;3.46;99.28
49104;BME280;34915;52.926;11.116;2023-05-03T03:54:46;102800.00;;;3.44;99.63
49104;BME280;34915;52.926;11.116;2023-05-03T03:57:12;102793.94;;;3.42;99.56
49104;BME280;34915;52.926;11.116;2023-05-03T03:59:37;102790.53;;;3.34;99.97
49104;BME280;34915;52.926;11.116;2023-05-03T04:02:03;102804.41;;;3.42;99.81
49104;BME280;34915;52.926;11.116;2023-05-03T04:04:29;102803.59;;;3.37;100.00
49104;BME280;34915;52.926;11.116;2023-05-03T04:06:55;102809.66;;;3.39;99.49
49104;BME280;34915;52.926;11.116;2023-05-03T04:09:21;102808.81;;;3.40;99.49
49104;BME280;34915;52.926;11.116;2023-05-03T04:11:46;102807.88;;;3.44;99.92
49104;BME280;34915;52.926;11.116;2023-05-03T04:14:12;102809.59;;;3.48;100.00
49104;BME280;34915;52.926;11.116;2023-05-03T04:16:38;102808.72;;;3.47;100.00
49104;BME280;34915;52.926;11.116;2023-05-03T04:19:05;102812.16;;;3.51;100.00
49104;BME280;34915;52.926;11.116;2023-05-03T04:21:31;102807.81;;;3.50;100.00
49104;BME280;34915;52.926;11.116;2023-05-03T04:23:57;102806.09;;;3.49;100.00
49104;BME280;34915;52.926;11.116;2023-05-03T04:26:25;102800.91;;;3.43;100.00
49104;BME280;34915;52.926;11.116;2023-05-03T04:28:51;102803.53;;;3.44;100.00
49104;BME280;34915;52.926;11.116;2023-05-03T04:31:17;102813.94;;;3.50;100.00
49104;BME280;34915;52.926;11.116;2023-05-03T04:33:45;102809.56;;;3.51;100.00
49104;BME280;34915;52.926;11.116;2023-05-03T04:36:11;102812.16;;;3.52;100.00
49104;BME280;34915;52.926;11.116;2023-05-03T04:38:41;102813.03;;;3.53;100.00
49104;BME280;34915;52.926;11.116;2023-05-03T04:41:08;102823.44;;;3.62;100.00
49104;BME280;34915;52.926;11.116;2023-05-03T04:43:34;102818.25;;;3.57;100.00
49104;BME280;34915;52.926;11.116;2023-05-03T04:46:00;102830.38;;;3.66;100.00
49104;BME280;34915;52.926;11.116;2023-05-03T04:48:28;102829.53;;;3.64;100.00
49104;BME280;34915;52.926;11.116;2023-05-03T04:50:54;102819.88;;;3.66;100.00
49104;BME280;34915;52.926;11.116;2023-05-03T04:53:19;102826.81;;;3.73;100.00
49104;BME280;34915;52.926;11.116;2023-05-03T04:55:45;102830.25;;;3.81;100.00
49104;BME280;34915;52.926;11.116;2023-05-03T04:58:12;102824.03;;;3.86;100.00
49104;BME280;34915;52.926;11.116;2023-05-03T05:00:38;102839.69;;;3.92;100.00
49104;BME280;34915;52.926;11.116;2023-05-03T05:03:04;102830.88;;;4.00;100.00
49104;BME280;34915;52.926;11.116;2023-05-03T05:05:30;102837.00;;;4.02;100.00
49104;BME280;34915;52.926;11.116;2023-05-03T05:07:56;102826.31;;;4.17;100.00
49104;BME280;34915;52.926;11.116;2023-05-03T05:10:22;102825.41;;;4.18;100.00
49104;BME280;34915;52.926;11.116;2023-05-03T05:12:48;102840.03;;;4.37;100.00
49104;BME280;34915;52.926;11.116;2023-05-03T05:15:13;102838.25;;;4.42;100.00
49104;BME280;34915;52.926;11.116;2023-05-03T05:17:39;102838.09;;;4.54;100.00
49104;BME280;34915;52.926;11.116;2023-05-03T05:20:05;102824.06;;;4.58;99.25
49104;BME280;34915;52.926;11.116;2023-05-03T05:22:32;102839.53;;;4.76;99.00
49104;BME280;34915;52.926;11.116;2023-05-03T05:24:58;102841.97;;;4.88;97.77
49104;BME280;34915;52.926;11.116;2023-05-03T05:27:25;102840.97;;;4.97;97.74
49104;BME280;34915;52.926;11.116;2023-05-03T05:29:51;102840.78;;;5.09;97.94
49104;BME280;34915;52.926;11.116;2023-05-03T05:32:16;102851.09;;;5.21;96.69
49104;BME280;34915;52.926;11.116;2023-05-03T05:34:42;102841.31;;;5.32;97.62
49104;BME280;34915;52.926;11.116;2023-05-03T05:37:12;102854.16;;;5.48;97.01
49104;BME280;34915;52.926;11.116;2023-05-03T05:39:42;102857.34;;;5.67;96.91
49104;BME280;34915;52.926;11.116;2023-05-03T05:42:07;102857.00;;;5.88;95.62
49104;BME280;34915;52.926;11.116;2023-05-03T05:44:33;102851.41;;;6.05;92.89
49104;BME280;34915;52.926;11.116;2023-05-03T05:46:59;102861.59;;;6.23;92.83
49104;BME280;34915;52.926;11.116;2023-05-03T05:49:25;102866.47;;;6.41;92.87
49104;BME280;34915;52.926;11.116;2023-05-03T05:51:50;102860.97;;;6.53;92.10
49104;BME280;34915;52.926;11.116;2023-05-03T05:54:16;102857.31;;;6.60;90.76
49104;BME280;34915;52.926;11.116;2023-05-03T05:56:41;102865.97;;;6.65;91.67
49104;BME280;34915;52.926;11.116;2023-05-03T05:59:07;102855.31;;;6.71;91.47
49104;BME280;34915;52.926;11.116;2023-05-03T06:01:33;102867.25;;;6.86;91.56
49104;BME280;34915;52.926;11.116;2023-05-03T06:03:58;102867.91;;;6.96;91.40
49104;BME280;34915;52.926;11.116;2023-05-03T06:06:24;102881.00;;;7.00;91.80
49104;BME280;34915;52.926;11.116;2023-05-03T06:08:49;102875.66;;;7.03;91.42
49104;BME280;34915;52.926;11.116;2023-05-03T06:11:16;102885.97;;;7.12;91.08
49104;BME280;34915;52.926;11.116;2023-05-03T06:13:42;102879.56;;;7.24;89.92
49104;BME280;34915;52.926;11.116;2023-05-03T06:16:09;102871.47;;;7.31;90.34
49104;BME280;34915;52.926;11.116;2023-05-03T06:18:35;102880.56;;;7.54;91.74
49104;BME280;34915;52.926;11.116;2023-05-03T06:21:01;102869.94;;;7.57;88.88
49104;BME280;34915;52.926;11.116;2023-05-03T06:23:28;102879.41;;;7.66;88.24
49104;BME280;34915;52.926;11.116;2023-05-03T06:25:53;102866.94;;;7.71;87.83
49104;BME280;34915;52.926;11.116;2023-05-03T06:28:19;102881.66;;;7.81;85.40
49104;BME280;34915;52.926;11.116;2023-05-03T06:30:48;102875.41;;;7.84;85.10
49104;BME280;34915;52.926;11.116;2023-05-03T06:33:14;102878.00;;;7.86;83.46
49104;BME280;34915;52.926;11.116;2023-05-03T06:35:40;102895.47;;;7.90;84.82
49104;BME280;34915;52.926;11.116;2023-05-03T06:38:07;102885.31;;;8.08;85.79
49104;BME280;34915;52.926;11.116;2023-05-03T06:40:33;102883.38;;;8.16;85.79
49104;BME280;34915;52.926;11.116;2023-05-03T06:43:01;102881.28;;;8.27;83.46
49104;BME280;34915;52.926;11.116;2023-05-03T06:45:27;102887.16;;;8.36;84.65
49104;BME280;34915;52.926;11.116;2023-05-03T06:47:52;102877.59;;;8.34;82.35
49104;BME280;34915;52.926;11.116;2023-05-03T06:50:18;102875.50;;;8.45;82.73
49104;BME280;34915;52.926;11.116;2023-05-03T06:52:45;102877.31;;;8.43;81.37
49104;BME280;34915;52.926;11.116;2023-05-03T06:55:11;102879.88;;;8.46;80.78
49104;BME280;34915;52.926;11.116;2023-05-03T06:57:38;102869.44;;;8.72;82.19
49104;BME280;34915;52.926;11.116;2023-05-03T07:00:03;102878.81;;;8.82;79.80
49104;BME280;34915;52.926;11.116;2023-05-03T07:02:32;102876.19;;;8.82;78.73
49104;BME280;34915;52.926;11.116;2023-05-03T07:04:58;102879.25;;;8.95;80.56
49104;BME280;34915;52.926;11.116;2023-05-03T07:07:24;102879.06;;;9.01;80.95
49104;BME280;34915;52.926;11.116;2023-05-03T07:09:50;102873.97;;;8.95;79.58
49104;BME280;34915;52.926;11.116;2023-05-03T07:12:17;102875.28;;;9.10;77.43
49104;BME280;34915;52.926;11.116;2023-05-03T07:14:43;102881.09;;;8.93;75.64
49104;BME280;34915;52.926;11.116;2023-05-03T07:17:10;102884.47;;;8.98;78.55
49104;BME280;34915;52.926;11.116;2023-05-03T07:19:37;102886.38;;;8.93;77.36
49104;BME280;34915;52.926;11.116;2023-05-03T07:22:03;102889.94;;;8.92;76.79
49104;BME280;34915;52.926;11.116;2023-05-03T07:24:28;102887.75;;;8.78;75.07
49104;BME280;34915;52.926;11.116;2023-05-03T07:26:55;102880.19;;;8.66;75.41
49104;BME280;34915;52.926;11.116;2023-05-03T07:29:22;102884.97;;;8.82;78.37
49104;BME280;34915;52.926;11.116;2023-05-03T07:31:47;102875.91;;;8.90;77.39
49104;BME280;34915;52.926;11.116;2023-05-03T07:34:13;102877.25;;;9.03;77.91
49104;BME280;34915;52.926;11.116;2023-05-03T07:36:39;102877.25;;;9.03;74.77
49104;BME280;34915;52.926;11.116;2023-05-03T07:39:04;102864.50;;;8.88;71.49
49104;BME280;34915;52.926;11.116;2023-05-03T07:41:30;102863.13;;;9.04;73.63
49104;BME280;34915;52.926;11.116;2023-05-03T07:43:56;102870.06;;;9.08;72.14
49104;BME280;34915;52.926;11.116;2023-05-03T07:46:22;102861.38;;;9.03;74.78
49104;BME280;34915;52.926;11.116;2023-05-03T07:48:48;102861.53;;;9.26;71.79
49104;BME280;34915;52.926;11.116;2023-05-03T07:51:13;102860.13;;;9.42;73.48
49104;BME280;34915;52.926;11.116;2023-05-03T07:53:39;102859.25;;;9.67;70.59
49104;BME280;34915;52.926;11.116;2023-05-03T07:56:06;102849.94;;;9.81;68.20
49104;BME280;34915;52.926;11.116;2023-05-03T07:58:32;102850.63;;;10.12;68.11
49104;BME280;34915;52.926;11.116;2023-05-03T08:00:57;102854.50;;;10.51;66.47
49104;BME280;34915;52.926;11.116;2023-05-03T08:03:23;102848.00;;;10.59;66.58
49104;BME280;34915;52.926;11.116;2023-05-03T08:05:49;102853.94;;;10.66;62.87
49104;BME280;34915;52.926;11.116;2023-05-03T08:08:14;102855.56;;;10.70;66.21
49104;BME280;34915;52.926;11.116;2023-05-03T08:10:41;102857.63;;;10.62;67.45
49104;BME280;34915;52.926;11.116;2023-05-03T08:13:06;102852.09;;;10.45;65.43
49104;BME280;34915;52.926;11.116;2023-05-03T08:15:32;102867.81;;;10.25;65.08
49104;BME280;34915;52.926;11.116;2023-05-03T08:17:58;102859.75;;;10.05;66.33
49104;BME280;34915;52.926;11.116;2023-05-03T08:20:24;102873.03;;;10.04;69.63
49104;BME280;34915;52.926;11.116;2023-05-03T08:22:52;102862.84;;;10.16;67.65
49104;BME280;34915;52.926;11.116;2023-05-03T08:25:24;102865.16;;;10.02;66.48
49104;BME280;34915;52.926;11.116;2023-05-03T08:27:51;102869.59;;;10.00;66.84
49104;BME280;34915;52.926;11.116;2023-05-03T08:30:18;102874.09;;;9.98;68.37
49104;BME280;34915;52.926;11.116;2023-05-03T08:32:44;102880.81;;;9.82;65.52
49104;BME280;34915;52.926;11.116;2023-05-03T08:35:10;102879.69;;;9.89;67.50
49104;BME280;34915;52.926;11.116;2023-05-03T08:37:41;102890.47;;;9.83;66.10
49104;BME280;34915;52.926;11.116;2023-05-03T08:40:08;102891.34;;;9.84;66.10
49104;BME280;34915;52.926;11.116;2023-05-03T08:42:45;102863.69;;;9.92;66.14
49104;BME280;34915;52.926;11.116;2023-05-03T08:45:12;102883.50;;;10.31;63.66
49104;BME280;34915;52.926;11.116;2023-05-03T08:47:43;102878.81;;;11.07;66.70
49104;BME280;34915;52.926;11.116;2023-05-03T08:50:13;102876.84;;;11.12;59.77
49104;BME280;34915;52.926;11.116;2023-05-03T08:52:41;102869.09;;;11.29;61.46
49104;BME280;34915;52.926;11.116;2023-05-03T08:55:08;102873.16;;;11.59;60.21
49104;BME280;34915;52.926;11.116;2023-05-03T08:57:36;102872.13;;;11.63;58.83
49104;BME280;34915;52.926;11.116;2023-05-03T09:00:03;102863.56;;;11.97;60.48
49104;BME280;34915;52.926;11.116;2023-05-03T09:02:36;102857.94;;;12.43;59.63
49104;BME280;34915;52.926;11.116;2023-05-03T09:05:29;102868.84;;;12.37;59.00
49104;BME280;34915;52.926;11.116;2023-05-03T09:08:07;102870.31;;;11.84;56.44
49104;BME280;34915;52.926;11.116;2023-05-03T09:10:39;102873.81;;;11.21;61.20
49104;BME280;34915;52.926;11.116;2023-05-03T09:13:06;102882.75;;;10.97;60.67
49104;BME280;34915;52.926;11.116;2023-05-03T09:15:33;102874.59;;;10.81;60.36
49104;BME280;34915;52.926;11.116;2023-05-03T09:18:12;102883.91;;;10.68;62.11
49104;BME280;34915;52.926;11.116;2023-05-03T09:20:40;102871.09;;;10.33;62.11
49104;BME280;34915;52.926;11.116;2023-05-03T09:23:08;102876.50;;;10.53;60.00
49104;BME280;34915;52.926;11.116;2023-05-03T09:25:45;102859.78;;;10.96;60.86
49104;BME280;34915;52.926;11.116;2023-05-03T09:28:12;102875.50;;;11.45;57.57
49104;BME280;34915;52.926;11.116;2023-05-03T09:30:38;102869.72;;;11.57;56.84
49104;BME280;34915;52.926;11.116;2023-05-03T09:33:04;102876.81;;;11.35;58.71
49104;BME280;34915;52.926;11.116;2023-05-03T09:35:30;102885.25;;;11.23;57.06
49104;BME280;34915;52.926;11.116;2023-05-03T09:37:57;102882.91;;;11.37;56.56
49104;BME280;34915;52.926;11.116;2023-05-03T09:40:23;102870.94;;;11.70;58.20
49104;BME280;34915;52.926;11.116;2023-05-03T09:43:09;102876.16;;;12.12;60.09
49104;BME280;34915;52.926;11.116;2023-05-03T09:45:36;102877.50;;;12.22;57.54
49104;BME280;34915;52.926;11.116;2023-05-03T09:48:03;102873.91;;;12.23;60.01
49104;BME280;34915;52.926;11.116;2023-05-03T09:50:33;102875.97;;;12.17;59.36
49104;BME280;34915;52.926;11.116;2023-05-03T09:53:03;102862.63;;;11.98;58.80
49104;BME280;34915;52.926;11.116;2023-05-03T09:55:36;102875.22;;;11.93;59.23
49104;BME280;34915;52.926;11.116;2023-05-03T09:58:03;102865.38;;;11.76;59.91
49104;BME280;34915;52.926;11.116;2023-05-03T10:03:01;102853.28;;;11.49;59.75
49104;BME280;34915;52.926;11.116;2023-05-03T10:05:30;102858.22;;;11.35;60.25
49104;BME280;34915;52.926;11.116;2023-05-03T10:07:59;102860.94;;;11.33;62.02
49104;BME280;34915;52.926;11.116;2023-05-03T10:10:27;102857.81;;;11.86;59.08
49104;BME280;34915;52.926;11.116;2023-05-03T10:12:55;102862.88;;;12.32;57.26
49104;BME280;34915;52.926;11.116;2023-05-03T10:15:21;102859.19;;;12.54;56.14
49104;BME280;34915;52.926;11.116;2023-05-03T10:17:48;102858.47;;;12.51;55.66
49104;BME280;34915;52.926;11.116;2023-05-03T10:20:32;102857.97;;;12.23;56.41
49104;BME280;34915;52.926;11.116;2023-05-03T10:25:29;102860.50;;;12.06;59.80
49104;BME280;34915;52.926;11.116;2023-05-03T10:28:07;102855.16;;;11.86;57.58
49104;BME280;34915;52.926;11.116;2023-05-03T10:30:34;102861.28;;;11.88;59.54
49104;BME280;34915;52.926;11.116;2023-05-03T10:35:42;102846.41;;;12.62;54.60
49104;BME280;34915;52.926;11.116;2023-05-03T10:38:14;102834.19;;;12.77;56.27
49104;BME280;34915;52.926;11.116;2023-05-03T10:40:41;102839.81;;;13.26;55.78
49104;BME280;34915;52.926;11.116;2023-05-03T10:48:26;102827.41;;;13.43;56.87
49104;BME280;34915;52.926;11.116;2023-05-03T10:50:53;102829.13;;;13.44;55.11
49104;BME280;34915;52.926;11.116;2023-05-03T10:53:39;102839.00;;;12.88;55.86
49104;BME280;34915;52.926;11.116;2023-05-03T10:56:12;102834.25;;;12.57;56.21
49104;BME280;34915;52.926;11.116;2023-05-03T11:01:11;102837.19;;;12.69;59.31
49104;BME280;34915;52.926;11.116;2023-05-03T11:06:38;102822.72;;;13.48;55.18
49104;BME280;34915;52.926;11.116;2023-05-03T11:09:07;102823.34;;;13.53;54.47
49104;BME280;34915;52.926;11.116;2023-05-03T11:11:35;102814.50;;;13.52;55.04
49104;BME280;34915;52.926;11.116;2023-05-03T11:14:01;102818.81;;;13.72;55.15
49104;BME280;34915;52.926;11.116;2023-05-03T11:16:28;102802.06;;;13.70;52.62
49104;BME280;34915;52.926;11.116;2023-05-03T11:18:54;102815.91;;;13.76;53.35
49104;BME280;34915;52.926;11.116;2023-05-03T11:21:20;102825.22;;;13.51;51.93
49104;BME280;34915;52.926;11.116;2023-05-03T11:23:45;102812.88;;;13.67;55.04
49104;BME280;34915;52.926;11.116;2023-05-03T11:26:12;102812.84;;;13.83;54.41
49104;BME280;34915;52.926;11.116;2023-05-03T11:28:42;102807.06;;;13.59;53.40
49104;BME280;34915;52.926;11.116;2023-05-03T11:31:08;102805.56;;;13.18;52.19
49104;BME280;34915;52.926;11.116;2023-05-03T11:33:36;102800.00;;;12.87;53.71
49104;BME280;34915;52.926;11.116;2023-05-03T11:36:03;102800.84;;;13.06;56.17
49104;BME280;34915;52.926;11.116;2023-05-03T11:38:32;102802.28;;;13.13;56.66
49104;BME280;34915;52.926;11.116;2023-05-03T11:40:59;102802.34;;;13.47;55.23
49104;BME280;34915;52.926;11.116;2023-05-03T11:43:25;102799.06;;;13.59;54.54
49104;BME280;34915;52.926;11.116;2023-05-03T11:45:54;102799.84;;;13.61;53.59
49104;BME280;34915;52.926;11.116;2023-05-03T11:48:21;102803.94;;;13.84;54.33
49104;BME280;34915;52.926;11.116;2023-05-03T11:50:51;102790.84;;;13.80;52.24
49104;BME280;34915;52.926;11.116;2023-05-03T11:53:21;102791.75;;;13.62;51.62
49104;BME280;34915;52.926;11.116;2023-05-03T11:55:49;102792.50;;;13.66;52.65
49104;BME280;34915;52.926;11.116;2023-05-03T12:00:45;102792.38;;;14.01;55.30
49104;BME280;34915;52.926;11.116;2023-05-03T12:05:48;102802.84;;;14.05;51.81
49104;BME280;34915;52.926;11.116;2023-05-03T12:08:16;102794.38;;;13.80;51.07
49104;BME280;34915;52.926;11.116;2023-05-03T12:10:44;102799.56;;;13.67;51.55
49104;BME280;34915;52.926;11.116;2023-05-03T12:13:11;102800.31;;;13.52;51.15
49104;BME280;34915;52.926;11.116;2023-05-03T12:15:38;102782.78;;;13.65;52.35
49104;BME280;34915;52.926;11.116;2023-05-03T12:18:09;102791.84;;;13.77;51.66
49104;BME280;34915;52.926;11.116;2023-05-03T12:20:36;102790.13;;;13.77;50.40
49104;BME280;34915;52.926;11.116;2023-05-03T12:23:06;102775.41;;;13.70;50.02
49104;BME280;34915;52.926;11.116;2023-05-03T12:25:34;102779.78;;;13.71;50.44
49104;BME280;34915;52.926;11.116;2023-05-03T12:28:02;102784.31;;;13.85;53.51
49104;BME280;34915;52.926;11.116;2023-05-03T12:30:28;102776.34;;;13.69;50.48
49104;BME280;34915;52.926;11.116;2023-05-03T12:32:54;102780.25;;;13.95;51.17
49104;BME280;34915;52.926;11.116;2023-05-03T12:35:20;102779.63;;;13.90;52.18
49104;BME280;34915;52.926;11.116;2023-05-03T12:37:47;102771.81;;;13.87;51.57
49104;BME280;34915;52.926;11.116;2023-05-03T12:40:14;102767.38;;;14.03;55.66
49104;BME280;34915;52.926;11.116;2023-05-03T12:42:40;102761.78;;;14.25;52.06
49104;BME280;34915;52.926;11.116;2023-05-03T12:45:06;102763.00;;;14.19;50.48
49104;BME280;34915;52.926;11.116;2023-05-03T12:47:33;102760.78;;;14.27;51.75
49104;BME280;34915;52.926;11.116;2023-05-03T12:49:59;102763.47;;;14.10;50.36
49104;BME280;34915;52.926;11.116;2023-05-03T12:52:26;102756.59;;;14.06;48.75
49104;BME280;34915;52.926;11.116;2023-05-03T12:54:52;102750.75;;;13.98;50.65
49104;BME280;34915;52.926;11.116;2023-05-03T12:57:17;102745.78;;;14.09;50.62
49104;BME280;34915;52.926;11.116;2023-05-03T12:59:43;102741.59;;;14.21;51.48
49104;BME280;34915;52.926;11.116;2023-05-03T13:02:10;102761.25;;;14.35;51.20
49104;BME280;34915;52.926;11.116;2023-05-03T13:04:36;102747.56;;;14.41;50.89
49104;BME280;34915;52.926;11.116;2023-05-03T13:07:01;102749.72;;;14.50;50.50
49104;BME280;34915;52.926;11.116;2023-05-03T13:09:27;102739.09;;;14.33;50.10
49104;BME280;34915;52.926;11.116;2023-05-03T13:11:53;102750.66;;;14.49;51.62
49104;BME280;34915;52.926;11.116;2023-05-03T13:14:19;102740.16;;;14.46;49.39
49104;BME280;34915;52.926;11.116;2023-05-03T13:16:45;102733.59;;;14.36;51.30
49104;BME280;34915;52.926;11.116;2023-05-03T13:19:14;102727.34;;;14.37;52.93
49104;BME280;34915;52.926;11.116;2023-05-03T13:21:41;102735.00;;;14.43;52.45